Time;durP1;ratioP1;P1;durP2;ratioP2;P2;SDS_P1;SDS_P2;PMS_P1;PMS_P2;Temp;Humidity;BMP_temperature;BMP_pressure;BME280_temperature;BME280_humidity;BME280_pressure;Samples;Min_cycle;Max_cycle;Signal;HPM_P1;HPM_P2
2021/04/25 00:00:09;;;;;;;10.77;6.73;;;11.70;56.30;;;11.65;64.18;98521.81;5038586;28;20683;-69
2021/04/25 00:02:40;;;;;;;11.73;6.43;;;11.80;56.80;;;11.65;64.12;98524.41;5039019;28;20641;-69
2021/04/25 00:05:11;;;;;;;9.87;6.50;;;11.80;56.80;;;11.62;64.13;98532.44;5038097;28;21231;-69
2021/04/25 00:07:39;;;;;;;10.33;6.73;;;11.70;56.90;;;11.54;64.77;98529.50;5039601;28;20718;-69
2021/04/25 00:10:10;;;;;;;13.57;6.63;;;11.70;56.70;;;11.51;64.48;98527.91;5035557;28;20711;-69
2021/04/25 00:12:40;;;;;;;8.00;5.47;;;11.60;56.70;;;11.46;65.07;98527.38;5039804;28;20922;-69
2021/04/25 00:15:11;;;;;;;10.73;6.43;;;11.60;56.90;;;11.42;65.15;98520.66;5047286;28;20633;-69
2021/04/25 00:17:39;;;;;;;9.93;6.50;;;11.50;57.10;;;11.43;65.85;98521.50;5045622;28;20642;-69
2021/04/25 00:20:10;;;;;;;11.57;6.53;;;11.50;57.40;;;11.44;65.31;98517.94;5045579;28;21204;-69
2021/04/25 00:22:38;;;;;;;8.93;6.87;;;11.60;57.60;;;11.46;64.91;98522.13;5045284;28;21078;-69
2021/04/25 00:25:08;;;;;;;9.30;6.40;;;11.60;57.60;;;11.46;65.37;98521.31;5047007;28;20638;-69
2021/04/25 00:27:36;;;;;;;9.20;6.33;;;11.60;57.50;;;11.46;65.27;98516.91;5044946;28;20636;-69
2021/04/25 00:30:07;;;;;;;11.00;6.97;;;11.60;57.80;;;11.41;64.61;98518.13;5040880;28;20762;-69
2021/04/25 00:32:35;;;;;;;10.27;6.57;;;11.50;57.40;;;11.32;64.88;98523.94;5038475;28;20754;-69
2021/04/25 00:35:07;;;;;;;13.40;8.00;;;11.40;57.60;;;11.30;65.31;98505.78;5040014;28;20672;-69
2021/04/25 00:37:35;;;;;;;11.63;7.00;;;11.40;57.90;;;11.36;65.45;98518.44;5045167;28;21045;-69
2021/04/25 00:40:05;;;;;;;10.70;7.00;;;11.40;57.80;;;11.36;65.68;98515.81;5047125;28;20673;-69
2021/04/25 00:42:33;;;;;;;10.47;6.10;;;11.50;58.20;;;11.33;65.67;98510.78;5040529;28;20685;-69
2021/04/25 00:45:04;;;;;;;12.30;7.60;;;11.40;58.10;;;11.33;66.05;98515.19;5042127;28;20637;-69
2021/04/25 00:47:32;;;;;;;9.93;6.63;;;11.40;58.20;;;11.29;65.61;98519.78;5044948;28;20637;-69
2021/04/25 00:49:59;;;;;;;9.43;6.63;;;11.40;58.00;;;11.23;65.48;98519.34;5043912;28;20988;-69
2021/04/25 00:52:28;;;;;;;12.43;6.80;;;11.40;58.20;;;11.13;66.38;98513.03;5041892;28;20661;-69
2021/04/25 00:54:56;;;;;;;12.93;7.37;;;11.20;58.10;;;11.13;66.61;98513.03;5041684;28;20640;-69
2021/04/25 00:57:24;;;;;;;11.60;7.53;;;11.20;58.80;;;11.11;66.67;98520.13;5042658;28;21043;-69
2021/04/25 00:59:54;;;;;;;13.23;7.20;;;11.20;58.80;;;11.07;66.80;98512.59;5043711;28;20745;-69
2021/04/25 01:02:22;;;;;;;13.13;6.33;;;11.20;58.90;;;11.02;66.36;98509.41;5041181;28;21188;-69
2021/04/25 01:04:49;;;;;;;9.77;6.70;;;11.20;58.90;;;10.97;66.53;98503.66;5044445;28;21207;-69
2021/04/25 01:07:17;;;;;;;8.80;6.67;;;11.10;58.90;;;10.92;66.96;98506.56;5049092;28;20631;-69
2021/04/25 01:09:45;;;;;;;10.10;7.50;;;11.10;59.10;;;10.94;66.81;98509.88;5048512;28;20749;-69
2021/04/25 01:12:13;;;;;;;13.70;7.87;;;11.00;59.20;;;10.96;67.36;98515.00;5047174;28;21180;-69
2021/04/25 01:14:41;;;;;;;12.47;7.03;;;11.10;59.50;;;10.99;67.06;98514.81;5041192;28;20679;-69
2021/04/25 01:17:08;;;;;;;13.87;8.70;;;11.10;59.20;;;10.92;66.46;98509.16;5046417;28;21213;-69
2021/04/25 01:19:36;;;;;;;9.93;7.27;;;11.00;58.90;;;10.84;66.79;98524.47;5045750;28;20641;-69
2021/04/25 01:22:05;;;;;;;13.67;7.33;;;11.00;59.20;;;10.85;66.96;98518.34;5044978;28;20641;-69
2021/04/25 01:24:33;;;;;;;12.97;7.47;;;10.90;59.30;;;10.82;67.10;98515.91;5038922;28;20687;-69
2021/04/25 01:27:02;;;;;;;10.80;7.10;;;10.90;59.40;;;10.79;67.93;98520.47;5045241;28;20643;-69
2021/04/25 01:29:30;;;;;;;10.87;7.57;;;10.90;60.20;;;10.76;67.59;98522.44;5047425;28;20992;-69
2021/04/25 01:32:01;;;;;;;10.33;6.57;;;10.90;59.90;;;10.66;67.55;98532.59;5039394;28;20657;-69
2021/04/25 01:34:29;;;;;;;12.37;7.50;;;10.80;59.70;;;10.61;67.45;98526.81;5037680;28;21236;-69
2021/04/25 01:36:57;;;;;;;10.50;7.57;;;10.70;59.90;;;10.59;67.87;98525.25;5043748;28;21002;-69
2021/04/25 01:39:26;;;;;;;10.63;7.17;;;10.70;59.90;;;10.58;67.86;98524.38;5047361;28;20652;-69
2021/04/25 01:41:57;;;;;;;10.63;6.67;;;10.70;60.30;;;10.63;68.48;98524.09;5047290;28;20633;-69
2021/04/25 01:44:25;;;;;;;13.90;7.00;;;10.70;60.80;;;10.63;68.29;98531.94;5038254;28;21052;-69
2021/04/25 01:46:53;;;;;;;13.17;7.30;;;10.80;60.70;;;10.64;68.02;98529.22;5044346;28;20698;-69
2021/04/25 01:49:21;;;;;;;12.60;7.57;;;10.80;60.70;;;10.60;68.15;98535.59;5037676;28;20642;-69
2021/04/25 01:51:48;;;;;;;9.67;7.13;;;10.70;60.20;;;10.58;68.07;98528.78;5046613;28;20688;-69
2021/04/25 01:54:16;;;;;;;12.80;7.07;;;10.70;60.60;;;10.53;67.58;98530.84;5043389;28;20679;-69
2021/04/25 01:56:44;;;;;;;11.70;7.40;;;10.70;60.20;;;10.51;67.71;98525.72;5047029;28;20640;-69
2021/04/25 01:59:13;;;;;;;10.13;6.90;;;10.70;60.70;;;10.48;68.36;98527.69;5044702;28;20645;-69
2021/04/25 02:01:40;;;;;;;12.20;7.70;;;10.60;60.70;;;10.45;68.04;98538.31;5044321;28;20629;-69
2021/04/25 02:04:08;;;;;;;14.67;8.70;;;10.60;61.40;;;10.39;67.71;98533.44;5039075;28;20743;-69
2021/04/25 02:06:41;;;;;;;11.40;7.30;;;10.50;60.40;;;10.35;68.52;98534.56;5042912;28;21247;-69
2021/04/25 02:09:09;;;;;;;15.80;8.07;;;10.50;61.00;;;10.32;68.64;98524.31;5038715;28;20644;-69
2021/04/25 02:11:38;;;;;;;11.10;8.03;;;10.50;61.20;;;10.28;68.68;98519.38;5043438;28;20645;-69
2021/04/25 02:14:07;;;;;;;11.50;7.60;;;10.40;61.40;;;10.25;68.72;98530.81;5040534;28;21187;-69
2021/04/25 02:16:35;;;;;;;11.60;7.23;;;10.40;61.50;;;10.19;68.35;98525.97;5049765;28;20686;-69
2021/04/25 02:19:04;;;;;;;14.23;7.70;;;10.30;61.40;;;10.15;69.19;98521.88;5040115;28;20673;-69
2021/04/25 02:21:31;;;;;;;14.03;8.40;;;10.30;62.00;;;10.05;68.70;98518.13;5039900;28;20671;-69
2021/04/25 02:23:59;;;;;;;11.17;8.00;;;10.10;61.80;;;9.94;70.16;98511.91;5043321;28;20643;-69
2021/04/25 02:26:27;;;;;;;16.10;8.33;;;10.00;62.20;;;9.89;69.09;98517.34;5043915;28;20691;-69
2021/04/25 02:28:54;;;;;;;11.13;7.40;;;10.00;62.50;;;9.91;69.51;98523.31;5046655;28;20678;-69
2021/04/25 02:31:23;;;;;;;12.20;8.60;;;10.00;62.90;;;9.96;69.69;98515.25;5043467;28;20671;-69
2021/04/25 02:33:51;;;;;;;14.60;8.30;;;10.00;62.90;;;9.94;69.53;98510.13;5043373;28;20660;-69
2021/04/25 02:36:20;;;;;;;12.30;7.90;;;10.00;63.00;;;9.96;69.74;98507.44;5040071;28;20641;-69
2021/04/25 02:38:48;;;;;;;13.03;8.50;;;10.10;63.80;;;9.91;70.54;98515.50;5042569;28;21183;-69
2021/04/25 02:41:15;;;;;;;16.00;8.00;;;10.10;63.50;;;9.85;70.35;98505.44;5041974;28;20724;-69
2021/04/25 02:43:43;;;;;;;12.67;8.03;;;10.00;63.40;;;9.80;70.74;98514.44;5042922;28;20684;-69
2021/04/25 02:46:11;;;;;;;12.20;8.37;;;9.90;65.20;;;9.72;70.38;98518.44;5042248;28;20644;-69
2021/04/25 02:48:39;;;;;;;10.23;7.50;;;9.80;64.90;;;9.68;71.06;98512.56;5039448;28;20677;-69
2021/04/25 02:51:07;;;;;;;12.73;7.80;;;9.80;65.30;;;9.62;70.87;98518.13;5039309;28;21251;-69
2021/04/25 02:53:34;;;;;;;13.07;7.90;;;9.70;65.60;;;9.56;70.61;98515.00;5045696;28;21099;-69
2021/04/25 02:56:03;;;;;;;13.33;8.37;;;9.70;65.80;;;9.48;71.69;98510.25;5036031;28;20641;-69
2021/04/25 02:58:30;;;;;;;10.33;7.33;;;9.60;66.30;;;9.46;70.75;98504.31;5043492;28;20645;-69
2021/04/25 03:00:59;;;;;;;15.17;7.40;;;9.70;66.50;;;9.40;72.43;98506.44;5042508;28;20629;-69
2021/04/25 03:03:26;;;;;;;10.70;6.97;;;9.60;66.50;;;9.37;71.72;98511.81;5040066;28;20641;-69
2021/04/25 03:05:55;;;;;;;11.30;7.10;;;9.60;67.20;;;9.34;71.44;98525.00;5038895;28;20653;-69
2021/04/25 03:08:23;;;;;;;12.23;7.70;;;9.50;66.90;;;9.28;72.49;98512.31;5042173;28;21185;-69
2021/04/25 03:10:51;;;;;;;11.57;7.43;;;9.50;67.00;;;9.22;71.82;98506.63;5039151;28;20638;-69
2021/04/25 03:13:19;;;;;;;11.57;7.20;;;9.40;67.30;;;9.08;72.44;98504.81;5042751;28;20655;-69
2021/04/25 03:15:46;;;;;;;12.13;7.20;;;9.30;67.10;;;9.04;71.52;98505.06;5042341;28;20702;-69
2021/04/25 03:18:14;;;;;;;9.17;7.63;;;9.20;67.20;;;9.03;72.21;98506.78;5036477;28;20629;-69
2021/04/25 03:20:42;;;;;;;12.73;8.17;;;9.20;67.40;;;8.99;72.13;98509.66;5042237;28;20737;-69
2021/04/25 03:23:10;;;;;;;10.70;7.80;;;9.20;67.80;;;8.95;72.32;98502.97;5041284;28;20645;-69
2021/04/25 03:25:38;;;;;;;16.10;7.63;;;9.20;68.70;;;8.96;72.64;98499.44;5039235;28;20643;-69
2021/04/25 03:28:05;;;;;;;14.07;7.53;;;9.10;68.40;;;8.95;73.15;98508.16;5038395;28;20723;-69
2021/04/25 03:30:34;;;;;;;9.80;7.20;;;9.10;68.50;;;8.89;72.77;98505.06;5041918;28;21072;-69
2021/04/25 03:33:01;;;;;;;10.67;7.77;;;9.10;68.60;;;8.83;72.91;98508.00;5038899;28;20768;-69
2021/04/25 03:35:29;;;;;;;10.10;8.00;;;9.00;68.30;;;8.79;71.85;98509.09;5040587;28;20735;-69
2021/04/25 03:37:57;;;;;;;11.13;7.80;;;9.00;68.50;;;8.72;72.63;98516.38;5043543;28;20687;-69
2021/04/25 03:40:25;;;;;;;12.23;7.93;;;8.90;68.80;;;8.60;71.95;98519.66;5037689;28;21224;-69
2021/04/25 03:42:53;;;;;;;11.60;8.47;;;8.80;68.50;;;8.54;73.26;98516.53;5042278;28;20732;-69
2021/04/25 03:45:22;;;;;;;10.93;7.43;;;8.70;69.10;;;8.49;74.34;98515.94;5042031;28;20689;-69
2021/04/25 03:47:52;;;;;;;14.90;8.40;;;8.70;69.70;;;8.37;74.30;98519.19;5036112;28;20645;-69
2021/04/25 03:50:24;;;;;;;10.70;7.80;;;8.60;69.60;;;8.30;73.90;98515.25;5038325;28;20640;-70
2021/04/25 03:52:52;;;;;;;13.07;7.77;;;8.50;70.00;;;8.19;74.25;98519.31;5042312;28;20743;-70
2021/04/25 03:55:21;;;;;;;11.57;7.70;;;8.40;70.30;;;8.19;74.33;98520.13;5040246;28;20649;-70
2021/04/25 03:57:49;;;;;;;12.33;7.30;;;8.40;70.90;;;8.20;75.45;98524.41;5039129;28;20744;-70
2021/04/25 04:00:19;;;;;;;10.53;7.60;;;8.40;71.50;;;8.17;74.30;98521.97;5041607;28;20640;-70
2021/04/25 04:02:47;;;;;;;13.83;7.93;;;8.40;71.50;;;8.16;75.45;98524.66;5038660;28;20660;-70
2021/04/25 04:05:17;;;;;;;10.00;6.90;;;8.40;71.70;;;8.14;74.25;98526.50;5037320;28;20637;-70
2021/04/25 04:07:45;;;;;;;10.70;7.20;;;8.40;72.10;;;8.11;74.57;98522.31;5040935;28;21059;-70
2021/04/25 04:10:13;;;;;;;11.47;7.30;;;8.30;72.50;;;8.02;74.29;98522.75;5040287;28;20637;-70
2021/04/25 04:12:41;;;;;;;9.17;7.10;;;8.30;72.20;;;7.99;74.03;98520.28;5043053;28;20751;-70
2021/04/25 04:15:10;;;;;;;10.93;7.10;;;8.20;71.80;;;7.95;74.68;98514.50;5041144;28;20641;-70
2021/04/25 04:17:38;;;;;;;10.13;7.17;;;8.10;72.00;;;7.78;74.87;98522.31;5040884;28;20668;-70
2021/04/25 04:20:08;;;;;;;10.90;6.87;;;7.80;72.00;;;7.71;74.69;98519.22;5038846;28;20699;-70
2021/04/25 04:22:35;;;;;;;14.00;7.40;;;7.80;72.70;;;7.67;75.18;98527.22;5043985;28;20731;-70
2021/04/25 04:25:03;;;;;;;10.37;7.30;;;7.80;73.40;;;7.64;75.14;98532.56;5038813;28;20698;-70
2021/04/25 04:27:31;;;;;;;10.23;7.00;;;7.80;72.90;;;7.52;75.77;98530.56;5041740;28;20992;-70
2021/04/25 04:30:00;;;;;;;15.63;8.60;;;7.70;73.40;;;7.47;75.84;98527.34;5043456;28;20671;-70
2021/04/25 04:32:28;;;;;;;11.63;7.23;;;7.60;73.40;;;7.48;76.31;98535.97;5039210;28;20731;-70
2021/04/25 04:34:56;;;;;;;11.67;7.33;;;7.60;74.20;;;7.44;75.88;98548.25;5042237;28;20659;-70
2021/04/25 04:37:24;;;;;;;12.57;7.30;;;7.60;74.20;;;7.43;75.53;98551.78;5039256;28;20640;-70
2021/04/25 04:39:52;;;;;;;10.40;6.87;;;7.60;74.10;;;7.40;76.20;98557.13;5041599;28;20736;-70
2021/04/25 04:42:19;;;;;;;10.30;7.33;;;7.60;74.60;;;7.47;76.62;98563.66;5054178;28;20686;-70
2021/04/25 04:44:47;;;;;;;9.63;7.27;;;7.60;74.70;;;7.51;76.91;98570.41;5039196;28;20668;-70
2021/04/25 04:47:15;;;;;;;16.10;7.40;;;7.70;75.60;;;7.54;76.58;98562.47;5044120;28;20651;-70
2021/04/25 04:49:43;;;;;;;12.67;7.30;;;7.70;76.10;;;7.59;77.04;98578.63;5037307;28;20701;-70
2021/04/25 04:52:11;;;;;;;14.23;7.50;;;7.70;76.70;;;7.65;76.82;98580.94;5039651;28;20652;-70
2021/04/25 04:54:39;;;;;;;11.37;8.40;;;7.80;76.40;;;7.65;77.51;98573.16;5041774;28;21077;-70
2021/04/25 04:57:06;;;;;;;11.30;7.50;;;7.80;76.40;;;7.66;76.63;98574.84;5039420;28;20672;-70
2021/04/25 04:59:34;;;;;;;11.90;7.17;;;7.80;76.60;;;7.73;76.55;98571.03;5039149;28;20633;-70
2021/04/25 05:02:01;;;;;;;12.20;7.60;;;7.90;76.70;;;7.80;77.37;98568.03;5044991;28;20784;-70
2021/04/25 05:04:29;;;;;;;11.30;7.27;;;7.90;76.80;;;7.84;76.90;98579.13;5042902;28;22222;-70
2021/04/25 05:06:57;;;;;;;12.60;8.23;;;7.90;76.80;;;7.87;76.68;98582.41;5043761;28;20645;-70
2021/04/25 05:09:25;;;;;;;10.33;7.60;;;8.00;76.40;;;7.92;76.25;98582.19;5043866;28;21263;-70
2021/04/25 05:11:55;;;;;;;12.83;8.40;;;8.00;75.90;;;7.90;77.17;98578.81;5040974;28;20648;-70
2021/04/25 05:14:22;;;;;;;13.13;7.77;;;8.00;75.70;;;7.96;75.24;98578.53;5045228;28;20771;-70
2021/04/25 05:16:50;;;;;;;12.53;8.30;;;8.00;75.70;;;8.10;75.67;98582.94;5041869;28;20681;-70
2021/04/25 05:19:18;;;;;;;11.97;8.10;;;8.20;75.70;;;8.38;74.71;98588.44;5042463;28;20641;-70
2021/04/25 05:21:45;;;;;;;11.30;8.43;;;8.40;75.70;;;8.74;75.64;98594.31;5021837;28;21156;-70
2021/04/25 05:24:14;;;;;;;9.63;6.97;;;8.70;76.60;;;9.10;75.12;98596.59;5042950;28;20677;-70
2021/04/25 05:26:41;;;;;;;14.03;8.40;;;9.00;76.20;;;9.46;72.66;98594.59;5048539;28;20707;-70
2021/04/25 05:29:09;;;;;;;12.03;8.43;;;9.30;74.50;;;9.82;71.58;98600.28;5059559;28;20641;-70
2021/04/25 05:31:36;;;;;;;12.63;8.27;;;9.60;72.50;;;10.16;70.93;98611.31;5057084;28;20728;-70
2021/04/25 05:34:05;;;;;;;12.50;8.10;;;9.90;72.00;;;10.47;70.31;98602.44;5042111;28;20660;-70
2021/04/25 05:36:32;;;;;;;12.20;8.97;;;10.20;69.20;;;10.76;69.41;98609.34;5040976;28;20679;-70
2021/04/25 05:39:00;;;;;;;11.20;8.23;;;10.50;68.30;;;11.05;68.77;98619.69;5041006;28;20694;-70
2021/04/25 05:41:28;;;;;;;13.43;8.73;;;10.80;66.70;;;11.27;66.91;98612.19;5041327;28;20696;-70
2021/04/25 05:43:56;;;;;;;12.83;8.57;;;11.00;65.60;;;11.50;66.33;98619.44;5039581;28;20644;-70
2021/04/25 05:46:24;;;;;;;12.83;8.30;;;11.30;64.60;;;11.76;67.82;98625.53;5042414;28;20688;-70
2021/04/25 05:48:51;;;;;;;11.83;8.87;;;11.50;65.90;;;12.00;66.67;98626.53;5041472;28;20676;-70
2021/04/25 05:51:19;;;;;;;14.70;9.13;;;11.80;63.30;;;12.22;66.55;98632.03;5041112;28;20734;-70
2021/04/25 05:53:47;;;;;;;13.00;9.80;;;12.00;62.90;;;12.42;65.55;98640.25;5039354;28;20687;-70
2021/04/25 05:56:15;;;;;;;12.43;9.30;;;12.20;61.70;;;12.62;64.16;98629.25;5039630;28;20636;-70
2021/04/25 05:58:44;;;;;;;11.07;9.43;;;12.40;61.10;;;12.82;66.05;98629.63;5041189;28;20645;-70
2021/04/25 06:01:11;;;;;;;12.03;8.77;;;12.60;61.50;;;12.97;64.29;98627.72;5042385;28;21061;-70
2021/04/25 06:03:39;;;;;;;15.97;10.00;;;12.70;59.70;;;13.20;63.63;98633.03;5040546;28;20998;-70
2021/04/25 06:06:07;;;;;;;13.50;9.47;;;12.90;59.40;;;13.42;62.66;98627.94;5039298;28;20635;-70
2021/04/25 06:08:40;;;;;;;14.40;9.13;;;13.20;59.00;;;13.66;61.53;98627.84;5044329;28;20736;-70
2021/04/25 06:11:07;;;;;;;16.13;8.73;;;13.40;58.70;;;13.85;61.90;98628.22;5041381;28;20641;-70
2021/04/25 06:13:35;;;;;;;14.47;9.70;;;13.60;58.00;;;14.05;61.17;98629.41;5040801;28;20730;-70
2021/04/25 06:16:04;;;;;;;14.23;9.97;;;13.80;57.30;;;14.27;61.08;98638.22;5044218;28;20634;-70
2021/04/25 06:18:34;;;;;;;15.87;10.23;;;14.00;57.90;;;14.56;60.63;98632.44;5041340;28;20642;-70
2021/04/25 06:21:02;;;;;;;14.77;11.00;;;14.30;57.60;;;14.83;60.20;98633.81;5040081;28;20743;-70
2021/04/25 06:23:30;;;;;;;15.03;10.90;;;14.50;56.90;;;15.07;59.87;98638.97;5040607;28;20734;-70
2021/04/25 06:25:57;;;;;;;16.43;11.27;;;14.70;56.00;;;15.27;58.63;98639.94;5041850;28;20642;-70
2021/04/25 06:28:27;;;;;;;14.83;10.87;;;14.90;55.70;;;15.41;57.56;98644.13;5043472;28;20677;-70
2021/04/25 06:30:56;;;;;;;15.47;11.80;;;15.10;54.50;;;15.43;56.99;98639.59;5044209;28;20720;-70
2021/04/25 06:33:30;;;;;;;12.83;10.90;;;15.10;54.00;;;15.72;57.48;98639.75;5041645;28;20667;-70
2021/04/25 06:35:57;;;;;;;14.73;11.17;;;15.30;54.30;;;15.91;59.09;98652.31;5039066;28;20676;-70
2021/04/25 06:38:25;;;;;;;15.43;11.47;;;15.60;54.60;;;16.07;55.11;98641.25;5039791;28;21067;-70
2021/04/25 06:40:53;;;;;;;15.60;11.47;;;15.80;52.90;;;16.26;56.19;98643.22;5039568;28;20649;-70
2021/04/25 06:43:20;;;;;;;15.80;11.60;;;16.00;53.10;;;16.41;56.59;98648.06;5042535;28;20787;-70
2021/04/25 06:45:49;;;;;;;16.20;12.30;;;16.10;52.80;;;16.55;57.12;98651.22;5045861;28;20646;-70
2021/04/25 06:48:17;;;;;;;15.57;11.37;;;16.20;53.40;;;16.56;55.99;98649.44;5041366;28;20634;-70
2021/04/25 06:50:45;;;;;;;16.20;12.50;;;16.30;52.30;;;16.58;55.11;98655.38;5040096;28;20660;-70
2021/04/25 06:53:13;;;;;;;14.00;11.50;;;16.30;51.90;;;16.77;56.06;98652.91;5039860;28;20692;-70
2021/04/25 06:55:41;;;;;;;14.60;12.80;;;16.40;51.80;;;16.98;54.50;98658.00;5037370;28;21094;-70
2021/04/25 06:58:09;;;;;;;16.10;12.80;;;16.60;51.90;;;17.19;55.15;98660.63;5041479;28;21184;-70
2021/04/25 07:00:37;;;;;;;18.40;12.90;;;16.70;52.10;;;17.43;54.74;98658.56;5039687;28;20668;-70
2021/04/25 07:03:05;;;;;;;14.67;12.03;;;17.00;51.70;;;17.57;53.13;98651.94;5040873;28;20641;-70
2021/04/25 07:05:33;;;;;;;14.90;12.40;;;17.20;50.80;;;17.46;51.76;98656.50;5039329;28;20723;-70
2021/04/25 07:08:02;;;;;;;15.20;12.70;;;17.10;48.30;;;17.49;53.88;98653.59;5039032;28;20707;-70
2021/04/25 07:10:30;;;;;;;14.33;12.33;;;17.10;49.80;;;17.64;52.18;98652.25;5041578;28;20643;-70
2021/04/25 07:12:57;;;;;;;15.83;13.07;;;17.20;48.80;;;17.61;52.89;98653.34;5043039;28;20674;-70
2021/04/25 07:15:25;;;;;;;14.97;12.77;;;17.20;47.90;;;17.94;53.79;98650.38;5039616;28;21036;-70
2021/04/25 07:17:54;;;;;;;13.50;12.07;;;17.50;49.50;;;18.06;50.23;98639.53;5042114;28;20644;-70
2021/04/25 07:20:22;;;;;;;16.30;12.07;;;17.60;46.80;;;17.96;53.43;98651.88;5043384;28;21022;-69
2021/04/25 07:22:52;;;;;;;16.30;13.20;;;17.60;47.70;;;18.06;51.19;98662.50;5039913;28;20691;-70
2021/04/25 07:25:23;;;;;;;15.90;12.77;;;17.60;46.60;;;18.10;50.00;98658.59;5038865;28;20631;-70
2021/04/25 07:27:51;;;;;;;14.30;12.27;;;17.70;46.30;;;18.32;51.68;98655.72;5043805;28;20649;-70
2021/04/25 07:30:20;;;;;;;13.90;12.30;;;17.90;46.90;;;18.43;51.55;98649.34;5045439;28;20740;-70
2021/04/25 07:32:48;;;;;;;16.50;12.63;;;18.00;46.30;;;18.59;49.50;98654.88;5042353;28;20646;-70
2021/04/25 07:35:19;;;;;;;15.63;11.83;;;18.20;45.70;;;18.25;49.80;98649.31;5038683;28;20692;-70
2021/04/25 07:37:49;;;;;;;14.80;12.37;;;17.80;44.40;;;18.27;51.99;98647.41;5045444;28;20740;-70
2021/04/25 07:40:17;;;;;;;15.67;11.67;;;17.80;46.40;;;18.47;49.04;98649.88;5044315;28;21037;-71
2021/04/25 07:42:46;;;;;;;15.67;11.63;;;18.10;45.30;;;18.49;49.08;98650.56;5042740;28;20661;-67
2021/04/25 07:45:14;;;;;;;14.27;11.97;;;18.10;44.90;;;18.67;49.13;98648.91;5038296;28;20633;-70
2021/04/25 07:47:43;;;;;;;18.80;14.33;;;18.30;44.70;;;18.88;50.49;98647.75;5039133;28;20700;-70
2021/04/25 07:50:14;;;;;;;13.50;10.87;;;18.50;45.40;;;18.98;48.96;98653.84;5038852;28;20644;-70
2021/04/25 07:52:42;;;;;;;12.47;11.13;;;18.70;45.00;;;19.11;49.25;98652.59;5043173;28;20652;-70
2021/04/25 07:55:11;;;;;;;14.90;11.17;;;18.70;44.30;;;19.16;48.41;98655.66;5040628;28;20696;-70
2021/04/25 07:57:39;;;;;;;13.73;11.50;;;18.80;43.80;;;19.21;48.22;98652.56;5043618;28;20726;-70
2021/04/25 08:00:17;;;;;;;14.37;11.60;;;18.90;44.00;;;19.27;49.28;98649.34;5051981;28;20658;-70
2021/04/25 08:02:54;;;;;;;15.50;10.90;;;18.90;44.30;;;19.35;49.24;98655.59;5048037;28;20682;-70
2021/04/25 08:05:22;;;;;;;11.33;9.83;;;19.10;44.40;;;19.35;48.30;98654.75;5050449;28;20611;-70
2021/04/25 08:07:51;;;;;;;12.50;10.60;;;19.10;43.80;;;19.41;47.19;98647.06;5051530;28;20614;-70
2021/04/25 08:10:19;;;;;;;14.60;10.23;;;19.10;43.00;;;19.51;47.76;98651.31;5051695;28;20611;-70
2021/04/25 08:12:50;;;;;;;14.43;10.40;;;19.20;43.60;;;19.47;47.69;98652.63;5051372;28;21189;-70
2021/04/25 08:15:21;;;;;;;11.73;10.23;;;19.20;42.30;;;19.21;47.42;98648.09;5051006;28;20959;-70
2021/04/25 08:17:49;;;;;;;13.70;10.77;;;19.00;41.90;;;19.25;47.98;98644.19;5058889;28;20703;-70
2021/04/25 08:20:16;;;;;;;12.53;9.80;;;19.00;42.70;;;19.46;49.61;98644.81;5051223;28;21076;-70
2021/04/25 08:22:44;;;;;;;10.73;9.63;;;19.10;44.50;;;19.52;47.51;98647.72;5051368;28;21153;-70
2021/04/25 08:25:13;;;;;;;12.30;10.03;;;19.20;42.60;;;19.58;48.85;98652.41;5022539;28;21163;-71
2021/04/25 08:27:40;;;;;;;11.53;9.37;;;19.30;43.90;;;19.55;46.70;98654.53;5051642;28;20623;-70
2021/04/25 08:30:23;;;;;;;11.83;9.07;;;19.20;41.80;;;19.60;50.29;98655.75;5048113;28;20677;-70
2021/04/25 08:33:10;;;;;;;10.40;9.30;;;19.30;44.60;;;19.77;46.71;98652.34;5048318;28;21176;-70
2021/04/25 08:35:38;;;;;;;13.70;8.50;;;19.40;42.80;;;19.11;46.01;98646.47;5050671;28;20715;-70
2021/04/25 08:38:08;;;;;;;9.50;8.00;;;18.70;39.40;;;18.48;46.46;98643.63;5055188;28;20618;-70
2021/04/25 08:40:36;;;;;;;10.63;8.43;;;18.30;40.10;;;18.21;47.43;98645.31;5054876;28;21042;-70
2021/04/25 08:43:04;;;;;;;9.47;8.17;;;18.00;41.00;;;18.08;47.36;98636.78;5054957;28;21181;-70
2021/04/25 08:45:33;;;;;;;10.23;8.40;;;17.80;41.30;;;18.64;50.37;98642.09;5055148;28;20659;-70
2021/04/25 08:48:01;;;;;;;9.93;8.20;;;18.10;45.20;;;18.91;48.27;98644.81;5053843;28;20611;-70
2021/04/25 08:50:32;;;;;;;12.43;9.10;;;18.50;44.10;;;18.98;48.96;98652.03;5047658;28;20644;-68
2021/04/25 08:53:03;;;;;;;11.00;8.83;;;18.60;43.20;;;18.78;46.92;98654.03;5042088;28;20682;-68
2021/04/25 08:55:31;;;;;;;12.77;8.17;;;18.30;41.50;;;18.37;48.38;98641.13;5043288;28;20635;-67
2021/04/25 08:58:00;;;;;;;10.50;9.00;;;18.00;42.50;;;18.71;50.45;98643.19;5045145;28;20638;-73
2021/04/25 09:00:28;;;;;;;10.60;7.93;;;18.30;45.00;;;18.50;47.25;98645.16;5047813;28;20634;-72
2021/04/25 09:02:57;;;;;;;13.13;8.03;;;18.10;41.70;;;18.03;47.64;98645.09;5042269;28;20635;-72
2021/04/25 09:05:25;;;;;;;12.30;8.30;;;17.70;41.20;;;17.63;47.17;98643.47;5042128;28;20694;-72
2021/04/25 09:07:57;;;;;;;14.13;9.30;;;17.30;41.30;;;17.78;47.80;98638.66;5041491;28;21183;-72
2021/04/25 09:10:31;;;;;;;9.47;8.00;;;17.30;42.80;;;17.93;48.65;98640.78;5048931;28;20678;-72
2021/04/25 09:13:00;;;;;;;12.87;8.20;;;17.60;42.40;;;18.37;52.08;98642.94;5054782;28;22493;-72
2021/04/25 09:15:33;;;;;;;10.80;7.60;;;17.90;47.40;;;18.41;46.73;98643.34;5068726;28;20623;-72
2021/04/25 09:18:05;;;;;;;9.63;7.70;;;18.00;42.00;;;18.37;48.07;98648.22;5052918;28;20613;-72
2021/04/25 09:20:41;;;;;;;8.53;7.70;;;18.00;42.90;;;18.17;46.87;98630.69;5059513;28;20744;-74
2021/04/25 09:23:11;;;;;;;11.77;7.70;;;17.80;41.30;;;17.97;45.92;98628.97;5047643;28;20676;-72
2021/04/25 09:25:54;;;;;;;10.47;7.13;;;17.50;40.70;;;17.87;46.83;98628.13;5043315;28;20667;-72
2021/04/25 09:28:21;;;;;;;10.47;8.33;;;17.50;41.00;;;17.71;49.14;98627.81;5053082;28;20636;-72
2021/04/25 09:30:58;;;;;;;8.90;7.63;;;17.30;42.20;;;18.13;47.21;98624.88;5054396;28;20633;-72
2021/04/25 09:33:48;;;;;;;9.67;7.50;;;17.60;43.30;;;18.31;46.94;98627.63;5052939;28;20640;-72
2021/04/25 09:36:18;;;;;;;8.70;7.80;;;17.80;42.20;;;18.20;50.98;98620.69;5051051;28;20666;-72
2021/04/25 09:38:45;;;;;;;9.93;7.10;;;17.80;43.90;;;18.48;49.43;98617.22;5054105;28;20623;-72
2021/04/25 09:41:24;;;;;;;8.93;6.93;;;18.00;43.90;;;18.75;48.35;98615.50;5065913;28;20633;-72
2021/04/25 09:43:55;;;;;;;9.03;7.23;;;18.30;43.40;;;19.00;47.92;98617.50;5054112;28;20630;-72
2021/04/25 09:46:23;;;;;;;9.20;7.47;;;18.50;43.30;;;19.16;47.00;98618.63;5053120;28;20614;-72
2021/04/25 09:48:52;;;;;;;9.87;7.80;;;18.70;42.70;;;19.12;47.05;98611.09;5050338;28;20653;-72
2021/04/25 09:51:23;;;;;;;11.37;7.10;;;18.80;41.00;;;19.21;47.29;98611.06;5050391;28;20612;-73
2021/04/25 09:54:02;;;;;;;9.67;6.70;;;18.80;42.30;;;19.31;47.19;98621.63;5053925;28;20645;-72
2021/04/25 09:56:38;;;;;;;6.53;5.73;;;18.90;42.20;;;18.96;45.93;98618.81;5051649;28;20612;-72
2021/04/25 09:59:08;;;;;;;14.03;8.70;;;18.70;40.20;;;18.84;45.43;98612.00;5050511;28;20628;-72
2021/04/25 10:01:40;;;;;;;8.57;7.20;;;18.40;38.70;;;18.71;47.83;98614.09;5053560;28;20630;-72
2021/04/25 10:04:31;;;;;;;9.93;6.90;;;18.30;40.80;;;18.48;45.37;98601.38;5050304;28;20666;-72
2021/04/25 10:07:00;;;;;;;9.10;6.50;;;18.10;38.60;;;18.67;49.70;98604.81;5051152;28;20628;-72
2021/04/25 10:09:29;;;;;;;8.07;7.03;;;18.30;43.30;;;19.08;48.23;98607.09;5053504;28;20635;-72
2021/04/25 10:11:59;;;;;;;10.40;6.00;;;18.60;43.40;;;19.37;47.74;98600.72;5053735;28;20602;-72
2021/04/25 10:14:31;;;;;;;8.33;6.63;;;18.90;43.10;;;19.53;48.96;98606.19;5054535;28;20658;-72
2021/04/25 10:17:00;;;;;;;9.13;6.37;;;19.10;43.00;;;19.45;45.09;98604.31;5049175;28;20986;-72
2021/04/25 10:19:29;;;;;;;8.40;6.50;;;19.10;39.30;;;18.68;45.73;98590.59;5053364;28;20625;-72
2021/04/25 10:21:57;;;;;;;9.20;7.20;;;18.40;38.50;;;18.19;44.97;98589.13;5053303;28;21155;-72